createdAt,value
2022-11-19T00:00:43.176Z,99569.50
2022-11-19T00:05:47.176Z,99562.06
2022-11-19T00:10:48.789Z,99556.97
2022-11-19T00:15:50.345Z,99555.34
2022-11-19T00:20:51.888Z,99562.25
2022-11-19T00:25:53.435Z,99557.00
2022-11-19T00:30:54.976Z,99564.66
2022-11-19T00:35:58.378Z,99565.19
2022-11-19T00:41:00.130Z,99570.63
2022-11-19T00:46:01.725Z,99580.53
2022-11-19T00:51:03.507Z,99590.44
2022-11-19T00:56:11.239Z,99593.91
2022-11-19T01:01:14.576Z,99598.44
2022-11-19T01:06:19.598Z,99592.03
2022-11-19T01:11:30.079Z,99608.31
2022-11-19T01:16:34.994Z,99603.19
2022-11-19T01:21:37.143Z,99607.16
2022-11-19T01:26:42.878Z,99609.78
2022-11-19T01:31:46.984Z,99616.84
2022-11-19T01:36:48.524Z,99608.03
2022-11-19T01:41:50.122Z,99615.72
2022-11-19T01:46:51.668Z,99610.44
2022-11-19T01:52:00.683Z,99603.28
2022-11-19T01:57:09.479Z,99605.53
2022-11-19T02:02:11.186Z,99615.38
2022-11-19T02:07:13.992Z,99607.00
2022-11-19T02:12:40.152Z,99609.47
2022-11-19T02:18:18.303Z,99605.31
2022-11-19T02:23:22.742Z,99614.09
2022-11-19T02:28:48.227Z,99616.38
2022-11-19T02:33:55.835Z,99623.25
2022-11-19T02:39:25.045Z,99618.63
2022-11-19T02:44:54.536Z,99614.47
2022-11-19T02:50:03.140Z,99613.69
2022-11-19T02:55:05.552Z,99615.69
2022-11-19T03:00:26.901Z,99621.56
2022-11-19T03:05:33.553Z,99620.97
2022-11-19T03:11:10.285Z,99627.00
2022-11-19T03:16:41.951Z,99635.56
2022-11-19T03:22:08.108Z,99634.88
2022-11-19T03:27:12.327Z,99627.31
2022-11-19T03:32:19.517Z,99636.09
2022-11-19T03:37:24.271Z,99633.38
2022-11-19T03:42:27.478Z,99641.13
2022-11-19T03:47:36.876Z,99647.16
2022-11-19T03:52:38.924Z,99647.69
2022-11-19T03:57:40.689Z,99654.13
2022-11-19T04:02:42.380Z,99655.22
2022-11-19T04:07:44.908Z,99645.75
2022-11-19T04:12:52.943Z,99655.22
2022-11-19T04:17:54.655Z,99658.38
2022-11-19T04:22:56.193Z,99655.25
2022-11-19T04:27:57.789Z,99651.94
2022-11-19T04:32:59.351Z,99650.41
2022-11-19T04:38:00.918Z,99659.25
2022-11-19T04:43:02.460Z,99660.78
2022-11-19T04:48:04.280Z,99664.66
2022-11-19T04:53:05.818Z,99648.38
2022-11-19T04:58:07.491Z,99655.97
2022-11-19T05:03:09.042Z,99655.66
2022-11-19T05:08:10.591Z,99655.66
2022-11-19T05:13:17.423Z,99655.66
2022-11-19T05:18:18.972Z,99657.31
2022-11-19T05:23:21.120Z,99658.56
2022-11-19T05:28:37.635Z,99662.94
2022-11-19T05:33:40.302Z,99656.84
2022-11-19T05:38:41.878Z,99667.53
2022-11-19T05:43:43.414Z,99667.16
2022-11-19T05:48:44.959Z,99674.66
2022-11-19T05:53:46.537Z,99673.56
2022-11-19T05:58:48.091Z,99680.22
2022-11-19T06:03:49.631Z,99687.50
2022-11-19T06:08:51.608Z,99697.28
2022-11-19T06:13:56.952Z,99693.69
2022-11-19T06:18:58.508Z,99693.47
2022-11-19T06:24:03.031Z,99689.44
2022-11-19T06:29:04.612Z,99696.00
2022-11-19T06:34:06.326Z,99696.56
2022-11-19T06:39:07.987Z,99708.38
2022-11-19T06:44:09.536Z,99710.28
2022-11-19T06:49:19.579Z,99713.41
2022-11-19T06:54:21.785Z,99724.03
2022-11-19T06:59:23.365Z,99723.41
2022-11-19T07:04:24.908Z,99730.91
2022-11-19T07:09:26.453Z,99727.91
2022-11-19T07:14:28.005Z,99730.59
2022-11-19T07:19:29.632Z,99744.53
2022-11-19T07:24:31.216Z,99755.94
2022-11-19T07:29:32.754Z,99757.09
2022-11-19T07:34:34.428Z,99761.81
2022-11-19T07:39:36.012Z,99766.78
2022-11-19T07:44:37.570Z,99773.75
2022-11-19T07:49:39.183Z,99776.56
2022-11-19T07:54:40.761Z,99780.66
2022-11-19T07:59:42.391Z,99781.66
2022-11-19T08:04:44.000Z,99786.44
2022-11-19T08:09:45.568Z,99793.19
2022-11-19T08:14:47.123Z,99803.19
2022-11-19T08:19:48.663Z,99803.25
2022-11-19T08:24:50.272Z,99802.19
2022-11-19T08:29:51.906Z,99796.72
2022-11-19T08:34:53.500Z,99797.88
2022-11-19T08:39:55.071Z,99798.53
2022-11-19T08:44:56.629Z,99801.06
2022-11-19T08:49:58.230Z,99806.28
2022-11-19T08:55:02.173Z,99796.56
2022-11-19T09:00:06.391Z,99790.50
2022-11-19T09:05:13.280Z,99783.16
2022-11-19T09:10:17.842Z,99787.16
2022-11-19T09:15:21.076Z,99783.38
2022-11-19T09:20:22.667Z,99787.75
2022-11-19T09:25:24.315Z,99795.00
2022-11-19T09:30:26.224Z,99797.06
2022-11-19T09:35:39.440Z,99803.13
2022-11-19T09:40:45.791Z,99805.00
2022-11-19T09:45:53.327Z,99807.63
2022-11-19T09:51:07.116Z,99808.44
2022-11-19T09:56:13.107Z,99809.00
2022-11-19T10:01:17.380Z,99810.38
2022-11-19T10:06:25.661Z,99810.44
2022-11-19T10:11:53.016Z,99816.88
2022-11-19T10:17:13.499Z,99813.72
2022-11-19T10:22:24.284Z,99805.38
2022-11-19T10:27:35.458Z,99806.72
2022-11-19T10:32:42.860Z,99802.66
2022-11-19T10:38:05.328Z,99791.75
2022-11-19T10:43:31.498Z,99786.88
2022-11-19T10:48:37.821Z,99784.59
2022-11-19T10:53:41.065Z,99782.34
2022-11-19T10:58:56.604Z,99779.91
2022-11-19T11:04:25.219Z,99779.44
2022-11-19T11:09:40.030Z,99783.47
2022-11-19T11:14:52.702Z,99775.72
2022-11-19T11:20:04.928Z,99772.94
2022-11-19T11:25:25.316Z,99778.00
2022-11-19T11:30:27.136Z,99779.00
2022-11-19T11:35:34.763Z,99776.72
2022-11-19T11:40:36.991Z,99779.00
2022-11-19T11:45:38.659Z,99769.75
2022-11-19T11:50:45.626Z,99769.16
2022-11-19T11:55:57.561Z,99774.91
2022-11-19T12:01:15.899Z,99773.78
2022-11-19T12:06:20.127Z,99777.50
2022-11-19T12:11:54.506Z,99771.78
2022-11-19T12:17:23.759Z,99776.63
2022-11-19T12:22:33.070Z,99774.91
2022-11-19T12:28:09.877Z,99776.47
2022-11-19T12:33:20.268Z,99782.22
2022-11-19T12:38:40.068Z,99776.38
2022-11-19T12:44:01.703Z,99785.00
2022-11-19T12:49:27.806Z,99784.03
2022-11-19T12:54:47.698Z,99776.50
2022-11-19T12:59:55.303Z,99781.50
2022-11-19T13:05:17.296Z,99781.50
2022-11-19T13:10:28.888Z,99781.22
2022-11-19T13:15:36.756Z,99790.16
2022-11-19T13:20:46.103Z,99783.75
2022-11-19T13:26:20.030Z,99778.75
2022-11-19T13:31:41.256Z,99777.09
2022-11-19T13:37:07.898Z,99785.91
2022-11-19T13:42:29.173Z,99786.72
2022-11-19T13:47:57.928Z,99779.34
2022-11-19T13:53:34.956Z,99770.94
2022-11-19T13:58:47.138Z,99775.84
2022-11-19T14:03:57.811Z,99772.66
2022-11-19T14:09:08.679Z,99775.13
2022-11-19T14:14:38.079Z,99773.09
2022-11-19T14:20:12.423Z,99775.22
2022-11-19T14:26:00.127Z,99778.19
2022-11-19T14:31:05.052Z,99784.97
2022-11-19T14:36:13.229Z,99800.28
2022-11-19T14:41:20.995Z,99827.44
2022-11-19T14:46:27.742Z,99827.56
2022-11-19T14:51:40.459Z,99826.72
2022-11-19T14:56:48.535Z,99820.94
2022-11-19T15:01:57.394Z,99805.69
2022-11-19T15:07:00.307Z,99778.31
2022-11-19T15:12:01.971Z,99788.34
2022-11-19T15:17:04.952Z,99788.38
2022-11-19T15:22:20.802Z,99780.22
2022-11-19T15:27:53.622Z,99788.38
2022-11-19T15:33:32.869Z,99794.22
2022-11-19T15:38:42.560Z,99789.19
2022-11-19T15:43:51.860Z,99792.09
2022-11-19T15:49:23.418Z,99798.34
2022-11-19T15:54:30.015Z,99795.00
2022-11-19T15:59:36.298Z,99802.75
2022-11-19T16:04:39.031Z,99815.91
2022-11-19T16:09:40.776Z,99819.44
2022-11-19T16:15:12.265Z,99819.88
2022-11-19T16:20:20.379Z,99834.28
2022-11-19T16:25:31.736Z,99835.34
2022-11-19T16:30:43.612Z,99835.47
2022-11-19T16:35:51.225Z,99823.53
2022-11-19T16:41:16.364Z,99838.78
2022-11-19T16:46:39.376Z,99828.13
2022-11-19T16:52:03.019Z,99840.03
2022-11-19T16:57:19.462Z,99847.16
2022-11-19T17:02:25.255Z,99850.50
2022-11-19T17:07:27.983Z,99852.00
2022-11-19T17:12:34.550Z,99845.34
2022-11-19T17:17:45.803Z,99854.34
2022-11-19T17:22:51.461Z,99862.47
2022-11-19T17:27:55.889Z,99872.91
2022-11-19T17:33:04.471Z,99873.28
2022-11-19T17:38:27.636Z,99886.38
2022-11-19T17:43:51.045Z,99891.06
2022-11-19T17:48:57.383Z,99894.38
2022-11-19T17:53:58.947Z,99901.72
2022-11-19T17:59:15.372Z,99917.31
2022-11-19T18:04:17.014Z,99909.41
2022-11-19T18:09:21.629Z,99915.28
2022-11-19T18:14:23.336Z,99926.81
2022-11-19T18:19:27.153Z,99934.97
2022-11-19T18:24:28.783Z,99934.50
2022-11-19T18:29:31.970Z,99934.31
2022-11-19T18:34:33.607Z,99947.44
2022-11-19T18:39:35.143Z,99942.47
2022-11-19T18:44:38.401Z,99945.56
2022-11-19T18:49:40.490Z,99952.41
2022-11-19T18:54:42.156Z,99948.44
2022-11-19T18:59:43.714Z,99953.56
2022-11-19T19:04:50.689Z,99954.16
2022-11-19T19:09:52.692Z,99965.78
2022-11-19T19:14:57.306Z,99962.09
2022-11-19T19:19:58.827Z,99978.81
2022-11-19T19:25:05.169Z,99978.13
2022-11-19T19:30:09.822Z,99985.41
2022-11-19T19:35:11.367Z,99986.47
2022-11-19T19:40:13.469Z,99991.25
2022-11-19T19:45:15.104Z,99995.59
2022-11-19T19:50:16.703Z,99999.59
2022-11-19T19:55:27.374Z,100000.47
2022-11-19T20:00:28.963Z,100010.66
2022-11-19T20:05:30.575Z,100012.78
2022-11-19T20:10:33.528Z,100019.22
2022-11-19T20:15:35.170Z,100018.72
2022-11-19T20:20:36.718Z,100019.38
2022-11-19T20:25:38.654Z,100014.59
2022-11-19T20:30:45.527Z,100030.63
2022-11-19T20:35:51.822Z,100043.47
2022-11-19T20:41:01.602Z,100032.38
2022-11-19T20:46:07.101Z,100040.88
2022-11-19T20:51:08.979Z,100041.97
2022-11-19T20:56:13.092Z,100038.91
2022-11-19T21:01:14.703Z,100047.25
2022-11-19T21:06:33.505Z,100047.06
2022-11-19T21:11:35.114Z,100036.09
2022-11-19T21:16:45.610Z,100039.53
2022-11-19T21:21:47.214Z,100044.34
2022-11-19T21:26:52.043Z,100045.19
2022-11-19T21:31:53.663Z,100050.09
2022-11-19T21:36:57.934Z,100055.53
2022-11-19T21:42:03.763Z,100053.41
2022-11-19T21:47:05.307Z,100054.25
2022-11-19T21:52:07.211Z,100050.69
2022-11-19T21:57:08.776Z,100062.59
2022-11-19T22:02:13.760Z,100056.13
2022-11-19T22:07:15.338Z,100059.31
2022-11-19T22:12:16.943Z,100057.59
2022-11-19T22:17:18.544Z,100054.56
2022-11-19T22:22:20.070Z,100056.19
2022-11-19T22:27:21.659Z,100063.09
2022-11-19T22:32:23.205Z,100052.25
2022-11-19T22:37:24.743Z,100060.78
2022-11-19T22:42:39.576Z,100057.16
2022-11-19T22:47:41.121Z,100062.16
2022-11-19T22:52:42.653Z,100051.50
2022-11-19T22:57:44.209Z,100046.94
2022-11-19T23:02:45.726Z,100047.03
2022-11-19T23:07:47.272Z,100036.81
2022-11-19T23:13:07.392Z,100034.09
2022-11-19T23:18:08.988Z,100038.69
2022-11-19T23:23:10.528Z,100038.44
2022-11-19T23:28:13.442Z,100040.88
2022-11-19T23:33:14.988Z,100036.09
2022-11-19T23:38:17.115Z,100029.41
2022-11-19T23:43:18.650Z,100031.44
2022-11-19T23:48:20.374Z,100028.91
2022-11-19T23:53:22.192Z,100021.66
2022-11-19T23:58:28.404Z,100022.03
